Time;durP1;ratioP1;P1;durP2;ratioP2;P2;SDS_P1;SDS_P2;PMS_P1;PMS_P2;Temp;Humidity;BMP_temperature;BMP_pressure;BME280_temperature;BME280_humidity;BME280_pressure;Samples;Min_cycle;Max_cycle;Signal;HPM_P1;HPM_P2
2022/07/17 00:02:24;;;;;;;2.28;1.15;;;15.60;52.90;;;;;;5040931;28;20068;-64
2022/07/17 00:04:50;;;;;;;2.45;1.08;;;15.60;53.00;;;;;;5051869;28;20040;-64
2022/07/17 00:07:15;;;;;;;3.53;1.40;;;15.60;53.00;;;;;;5055789;28;20162;-64
2022/07/17 00:09:41;;;;;;;2.20;1.35;;;15.60;53.00;;;;;;5054284;28;20045;-64
2022/07/17 00:12:07;;;;;;;3.38;1.42;;;15.50;53.00;;;;;;5053908;28;20037;-64
2022/07/17 00:14:33;;;;;;;3.25;1.20;;;15.50;53.00;;;;;;5055029;28;20048;-64
2022/07/17 00:16:58;;;;;;;4.00;2.00;;;15.50;53.00;;;;;;5055435;28;20033;-64
2022/07/17 00:19:25;;;;;;;2.97;1.55;;;15.40;53.00;;;;;;5055416;28;20401;-64
2022/07/17 00:21:51;;;;;;;5.22;1.80;;;15.40;53.10;;;;;;5053999;28;20128;-64
2022/07/17 00:24:19;;;;;;;3.22;1.50;;;15.40;53.10;;;;;;5054237;28;20120;-63
2022/07/17 00:26:51;;;;;;;4.70;1.98;;;15.40;53.10;;;;;;5055261;28;20486;-63
2022/07/17 00:29:18;;;;;;;3.03;1.50;;;15.30;53.20;;;;;;5037456;28;20049;-63
2022/07/17 00:31:44;;;;;;;4.00;1.90;;;15.30;53.20;;;;;;5054080;28;20037;-63
2022/07/17 00:34:10;;;;;;;2.97;1.90;;;15.30;53.20;;;;;;5054041;28;20049;-64
2022/07/17 00:36:36;;;;;;;4.40;2.17;;;15.30;53.20;;;;;;5054065;28;20044;-64
2022/07/17 00:39:02;;;;;;;4.72;2.25;;;15.20;53.20;;;;;;5054134;28;20049;-62
2022/07/17 00:41:28;;;;;;;3.78;1.80;;;15.20;53.20;;;;;;5053952;28;20037;-62
2022/07/17 00:43:53;;;;;;;3.30;1.52;;;15.20;53.20;;;;;;5054838;28;20044;-63
2022/07/17 00:46:20;;;;;;;4.13;1.63;;;15.20;53.30;;;;;;5054168;28;20091;-64
2022/07/17 00:48:46;;;;;;;3.55;1.60;;;15.10;53.30;;;;;;5053486;28;20477;-64
2022/07/17 00:51:12;;;;;;;3.65;1.55;;;15.10;53.30;;;;;;5053602;28;20041;-64
2022/07/17 00:53:40;;;;;;;2.33;1.38;;;15.10;53.30;;;;;;5053463;28;20048;-64
2022/07/17 00:56:06;;;;;;;4.20;1.73;;;15.10;53.40;;;;;;5053848;28;20493;-64
2022/07/17 00:58:35;;;;;;;4.22;1.80;;;15.00;53.40;;;;;;5033226;28;20057;-64
2022/07/17 01:01:05;;;;;;;4.35;1.40;;;15.00;53.50;;;;;;5044454;28;20406;-64
2022/07/17 01:03:31;;;;;;;5.57;1.88;;;15.00;53.50;;;;;;5042814;28;20037;-64
2022/07/17 01:05:57;;;;;;;4.82;2.05;;;15.00;53.50;;;;;;5052890;28;20175;-64
2022/07/17 01:08:23;;;;;;;4.32;2.25;;;14.90;53.50;;;;;;5053431;28;20642;-64
2022/07/17 01:10:49;;;;;;;3.33;2.17;;;14.90;53.50;;;;;;5054099;28;20044;-63
2022/07/17 01:13:15;;;;;;;6.22;2.03;;;14.90;53.50;;;;;;5032968;28;20037;-63
2022/07/17 01:15:41;;;;;;;4.05;1.88;;;14.90;53.60;;;;;;5017111;28;20042;-63
2022/07/17 01:18:12;;;;;;;4.65;1.73;;;14.90;53.60;;;;;;5036555;28;20076;-63
2022/07/17 01:20:40;;;;;;;3.35;1.63;;;14.90;53.70;;;;;;5053043;28;20044;-63
2022/07/17 01:23:06;;;;;;;3.22;1.63;;;14.80;53.60;;;;;;5052876;28;20052;-64
2022/07/17 01:25:32;;;;;;;3.05;1.30;;;14.80;53.60;;;;;;5052907;28;20432;-64
2022/07/17 01:27:58;;;;;;;3.05;1.30;;;14.80;53.60;;;;;;5054269;28;20040;-64
2022/07/17 01:30:24;;;;;;;3.75;1.38;;;14.80;53.60;;;;;;5053335;28;20048;-63
2022/07/17 01:32:50;;;;;;;2.13;1.27;;;14.80;53.60;;;;;;5030787;28;20042;-63
2022/07/17 01:35:16;;;;;;;2.28;1.20;;;14.80;53.60;;;;;;5051697;28;20037;-63
2022/07/17 01:37:43;;;;;;;3.35;1.50;;;14.70;53.60;;;;;;5052366;28;20051;-64
2022/07/17 01:40:12;;;;;;;2.83;1.63;;;14.70;53.70;;;;;;5051371;28;20131;-64
2022/07/17 01:42:41;;;;;;;4.03;1.40;;;14.70;53.70;;;;;;5019882;28;20041;-64
2022/07/17 01:45:07;;;;;;;2.83;1.38;;;14.70;53.80;;;;;;5052262;28;20079;-64
2022/07/17 01:47:34;;;;;;;2.95;1.38;;;14.60;53.80;;;;;;5053043;28;20095;-64
2022/07/17 01:50:00;;;;;;;2.67;1.58;;;14.60;53.80;;;;;;5052531;28;20095;-64
2022/07/17 01:52:26;;;;;;;4.38;1.30;;;14.60;53.70;;;;;;5053250;28;20044;-64
2022/07/17 01:54:53;;;;;;;3.63;1.40;;;14.50;53.70;;;;;;5052234;28;20057;-63
2022/07/17 01:57:19;;;;;;;4.90;1.40;;;14.50;53.80;;;;;;5052435;28;20049;-63
2022/07/17 01:59:44;;;;;;;3.42;1.25;;;14.50;53.90;;;;;;5052434;28;20059;-63
2022/07/17 02:02:11;;;;;;;3.88;1.52;;;14.50;53.90;;;;;;5052970;28;20152;-63
2022/07/17 02:04:38;;;;;;;3.17;1.20;;;14.50;53.90;;;;;;5051923;28;20044;-63
2022/07/17 02:07:04;;;;;;;4.93;1.55;;;14.40;54.00;;;;;;5036068;28;20041;-63
2022/07/17 02:09:30;;;;;;;4.35;1.05;;;14.40;54.00;;;;;;5053546;28;20037;-63
2022/07/17 02:11:56;;;;;;;2.70;1.27;;;14.40;54.00;;;;;;5040019;28;20041;-62
2022/07/17 02:14:22;;;;;;;3.60;1.15;;;14.40;54.00;;;;;;5041160;28;20063;-63
2022/07/17 02:16:47;;;;;;;2.80;1.15;;;14.40;54.00;;;;;;5053154;28;20128;-62
2022/07/17 02:19:13;;;;;;;1.77;1.00;;;14.30;53.90;;;;;;5051666;28;20041;-63
2022/07/17 02:21:39;;;;;;;2.33;1.10;;;14.40;53.90;;;;;;5035712;28;20045;-63
2022/07/17 02:24:05;;;;;;;2.97;1.33;;;14.40;54.00;;;;;;5019243;28;20055;-63
2022/07/17 02:26:31;;;;;;;2.28;1.10;;;14.30;53.90;;;;;;5052129;28;20523;-63
2022/07/17 02:28:57;;;;;;;2.65;1.00;;;14.30;53.90;;;;;;5051439;28;20029;-63
2022/07/17 02:31:23;;;;;;;2.92;0.90;;;14.30;53.90;;;;;;5051809;28;20437;-63
2022/07/17 02:33:48;;;;;;;1.85;0.90;;;14.30;54.00;;;;;;5053064;28;20485;-63
2022/07/17 02:36:14;;;;;;;2.72;1.08;;;14.20;54.00;;;;;;5050753;28;20087;-63
2022/07/17 02:38:40;;;;;;;2.85;1.27;;;14.20;54.00;;;;;;5051770;28;20044;-63
2022/07/17 02:41:05;;;;;;;1.38;0.88;;;14.20;54.10;;;;;;5051858;28;20033;-63
2022/07/17 02:43:31;;;;;;;2.00;0.93;;;14.20;54.10;;;;;;5051860;28;20049;-63
2022/07/17 02:45:57;;;;;;;1.90;1.02;;;14.20;54.10;;;;;;5051201;28;20053;-63
2022/07/17 02:48:23;;;;;;;2.05;0.98;;;14.10;54.10;;;;;;5051903;28;20087;-63
2022/07/17 02:50:48;;;;;;;1.67;1.02;;;14.10;54.10;;;;;;5047809;28;20040;-63
2022/07/17 02:53:14;;;;;;;1.52;1.00;;;14.10;54.00;;;;;;5051315;28;20074;-63
2022/07/17 02:55:40;;;;;;;3.40;1.00;;;14.10;54.10;;;;;;5051400;28;20084;-63
2022/07/17 02:58:05;;;;;;;2.38;1.10;;;14.00;54.20;;;;;;5035101;28;20079;-63
2022/07/17 03:00:31;;;;;;;2.15;0.90;;;14.00;54.20;;;;;;5051190;28;20081;-63
2022/07/17 03:02:57;;;;;;;1.63;1.10;;;13.90;54.30;;;;;;5051261;28;20083;-63
2022/07/17 03:05:23;;;;;;;2.42;1.13;;;13.90;54.30;;;;;;5050820;28;20080;-63
2022/07/17 03:07:49;;;;;;;2.05;0.93;;;13.90;54.40;;;;;;5030853;28;20037;-64
2022/07/17 03:10:15;;;;;;;2.70;0.90;;;13.90;54.50;;;;;;5051141;28;20033;-64
2022/07/17 03:12:42;;;;;;;2.13;0.88;;;13.80;54.50;;;;;;5051278;28;20402;-63
2022/07/17 03:15:08;;;;;;;1.52;0.80;;;13.80;54.50;;;;;;5050714;28;20037;-63
2022/07/17 03:17:34;;;;;;;1.98;0.80;;;13.80;54.60;;;;;;5051385;28;20045;-64
2022/07/17 03:20:00;;;;;;;3.08;1.17;;;13.80;54.60;;;;;;5032559;28;20047;-64
2022/07/17 03:22:26;;;;;;;1.67;0.80;;;13.80;54.50;;;;;;5052424;28;20037;-64
2022/07/17 03:24:52;;;;;;;1.35;0.70;;;13.80;54.50;;;;;;5052470;28;20498;-63
2022/07/17 03:27:17;;;;;;;1.27;0.80;;;13.80;54.50;;;;;;5050843;28;20049;-63
2022/07/17 03:29:44;;;;;;;1.77;0.93;;;13.80;54.40;;;;;;5052230;28;20040;-62
2022/07/17 03:32:10;;;;;;;3.03;0.90;;;13.80;54.40;;;;;;5050999;28;20037;-63
2022/07/17 03:34:37;;;;;;;2.67;1.30;;;13.80;54.30;;;;;;5038762;28;20060;-62
2022/07/17 03:37:03;;;;;;;2.15;0.80;;;13.80;54.70;;;;;;5036005;28;20049;-63
2022/07/17 03:39:29;;;;;;;3.25;0.95;;;13.80;54.30;;;;;;5028907;28;20486;-63
2022/07/17 03:41:56;;;;;;;2.20;1.02;;;13.80;54.30;;;;;;5055121;28;20049;-63
2022/07/17 03:44:22;;;;;;;1.83;1.00;;;13.70;54.30;;;;;;5056330;28;20032;-62
2022/07/17 03:46:47;;;;;;;1.08;0.70;;;13.70;54.30;;;;;;5054888;28;20083;-62
2022/07/17 03:49:13;;;;;;;1.42;0.90;;;13.70;54.40;;;;;;5056202;28;20080;-63
2022/07/17 03:51:39;;;;;;;1.10;0.70;;;13.70;54.50;;;;;;5046292;28;20042;-63
2022/07/17 03:54:04;;;;;;;2.15;0.90;;;13.70;54.50;;;;;;5042489;28;20032;-63
2022/07/17 03:56:30;;;;;;;5.28;1.42;;;13.70;54.50;;;;;;5056020;28;20144;-68
2022/07/17 03:58:56;;;;;;;1.50;0.80;;;13.70;54.60;;;;;;5054765;28;20106;-68
2022/07/17 04:01:22;;;;;;;1.30;0.80;;;13.60;54.60;;;;;;5054904;28;20485;-68
2022/07/17 04:03:47;;;;;;;2.67;0.90;;;13.70;54.60;;;;;;5055904;28;20044;-68
2022/07/17 04:06:16;;;;;;;1.30;0.95;;;13.70;54.70;;;;;;5054533;28;20430;-69
2022/07/17 04:08:42;;;;;;;2.00;0.95;;;13.70;54.80;;;;;;5055537;28;20048;-67
2022/07/17 04:11:08;;;;;;;2.30;0.88;;;13.60;54.90;;;;;;5053905;28;20496;-69
2022/07/17 04:13:34;;;;;;;1.90;0.90;;;13.70;54.90;;;;;;5038018;28;20375;-68
2022/07/17 04:16:00;;;;;;;2.47;1.40;;;13.70;55.00;;;;;;5054379;28;20051;-63
2022/07/17 04:18:32;;;;;;;1.60;0.90;;;13.60;55.10;;;;;;5054426;28;20094;-63
2022/07/17 04:21:04;;;;;;;3.22;1.08;;;13.70;55.30;;;;;;5054171;28;20498;-63
2022/07/17 04:23:30;;;;;;;2.28;0.93;;;13.60;55.40;;;;;;5050870;28;20045;-63
2022/07/17 04:25:56;;;;;;;4.28;1.08;;;13.60;55.40;;;;;;5055221;28;20051;-63
2022/07/17 04:28:22;;;;;;;1.60;1.00;;;13.70;55.50;;;;;;5055498;28;20040;-63
2022/07/17 04:30:48;;;;;;;2.17;1.17;;;13.70;55.60;;;;;;5054043;28;20064;-63
2022/07/17 04:33:14;;;;;;;3.28;0.98;;;13.70;55.90;;;;;;5054283;28;20489;-63
2022/07/17 04:35:40;;;;;;;2.70;1.42;;;13.60;55.90;;;;;;5053962;28;20443;-63
2022/07/17 04:38:07;;;;;;;3.05;1.30;;;13.60;56.00;;;;;;5052790;28;20063;-63
2022/07/17 04:40:34;;;;;;;2.97;1.45;;;13.60;56.10;;;;;;5055184;28;20041;-63
2022/07/17 04:43:00;;;;;;;1.80;1.13;;;13.60;56.20;;;;;;5037031;28;20044;-63
2022/07/17 04:45:26;;;;;;;2.15;1.40;;;13.70;56.40;;;;;;5053689;28;20037;-63
2022/07/17 04:47:51;;;;;;;4.10;1.70;;;13.70;56.50;;;;;;5053797;28;20156;-63
2022/07/17 04:50:17;;;;;;;3.63;1.35;;;13.70;56.60;;;;;;5053292;28;20044;-63
2022/07/17 04:52:43;;;;;;;3.17;1.30;;;13.70;56.80;;;;;;5053585;28;20086;-63
2022/07/17 04:55:09;;;;;;;2.88;1.50;;;13.70;56.80;;;;;;5054037;28;20115;-63
2022/07/17 04:57:35;;;;;;;2.97;1.70;;;13.80;57.20;;;;;;5054700;28;20045;-63
2022/07/17 05:00:03;;;;;;;3.63;1.38;;;13.80;57.80;;;;;;5053134;28;20055;-63
2022/07/17 05:02:29;;;;;;;2.78;1.20;;;13.80;57.70;;;;;;5058045;28;20072;-63
2022/07/17 05:04:54;;;;;;;3.95;1.20;;;13.80;57.80;;;;;;5053809;28;20114;-63
2022/07/17 05:07:20;;;;;;;2.08;1.00;;;13.80;57.90;;;;;;5052971;28;20033;-63
2022/07/17 05:09:46;;;;;;;3.08;1.50;;;13.80;57.90;;;;;;5053453;28;20097;-63
2022/07/17 05:12:11;;;;;;;5.80;1.65;;;13.80;58.20;;;;;;5053449;28;20466;-64
2022/07/17 05:14:37;;;;;;;5.47;2.08;;;13.80;58.40;;;;;;5053061;28;20045;-63
2022/07/17 05:17:03;;;;;;;5.22;1.83;;;13.90;58.70;;;;;;5053202;28;20083;-64
2022/07/17 05:19:28;;;;;;;2.50;1.15;;;13.90;58.90;;;;;;5053130;28;20068;-63
2022/07/17 05:21:54;;;;;;;3.70;1.52;;;14.00;59.00;;;;;;5053278;28;20433;-63
2022/07/17 05:24:20;;;;;;;4.18;1.23;;;14.00;59.10;;;;;;5054022;28;20067;-63
2022/07/17 05:26:46;;;;;;;2.92;1.48;;;14.00;59.10;;;;;;5053366;28;20045;-63
2022/07/17 05:29:11;;;;;;;5.30;1.83;;;14.10;59.10;;;;;;5052831;28;20413;-64
2022/07/17 05:31:37;;;;;;;2.88;0.95;;;14.10;59.20;;;;;;5033036;28;20037;-63
2022/07/17 05:34:03;;;;;;;2.97;1.38;;;14.20;59.10;;;;;;5047395;28;20178;-63
2022/07/17 05:36:28;;;;;;;3.00;1.10;;;14.20;59.00;;;;;;5054169;28;20040;-64
2022/07/17 05:38:54;;;;;;;2.33;0.93;;;14.30;59.10;;;;;;5049351;28;20038;-64
2022/07/17 05:41:20;;;;;;;3.35;1.00;;;14.30;59.10;;;;;;5034384;28;20394;-63
2022/07/17 05:43:45;;;;;;;2.80;1.30;;;14.40;59.10;;;;;;5059223;28;20119;-64
2022/07/17 05:46:11;;;;;;;3.00;1.10;;;14.50;59.20;;;;;;5052530;28;20051;-64
2022/07/17 05:48:37;;;;;;;3.67;1.40;;;14.50;59.30;;;;;;5022374;28;20045;-63
2022/07/17 05:51:02;;;;;;;3.75;1.20;;;14.60;59.40;;;;;;5050292;28;20498;-63
2022/07/17 05:53:29;;;;;;;4.30;1.50;;;14.70;59.40;;;;;;5053717;28;20042;-63
2022/07/17 05:55:54;;;;;;;2.92;1.63;;;14.70;59.50;;;;;;5067836;28;20592;-63
2022/07/17 05:58:20;;;;;;;3.20;1.60;;;14.80;59.60;;;;;;5051926;28;20052;-63
2022/07/17 06:00:48;;;;;;;2.95;1.35;;;14.90;59.70;;;;;;5054065;28;20060;-63
2022/07/17 06:03:14;;;;;;;4.55;1.67;;;14.90;60.00;;;;;;5052717;28;20076;-63
2022/07/17 06:05:40;;;;;;;4.15;1.38;;;15.00;60.60;;;;;;5053938;28;20133;-63
2022/07/17 06:08:06;;;;;;;5.88;1.77;;;15.10;60.80;;;;;;5052251;28;20490;-64
2022/07/17 06:10:33;;;;;;;4.93;1.40;;;15.20;60.80;;;;;;5046520;28;20073;-64
2022/07/17 06:12:58;;;;;;;5.88;1.55;;;15.40;61.20;;;;;;5052503;28;20084;-64
2022/07/17 06:15:24;;;;;;;4.13;1.10;;;15.80;61.30;;;;;;5052289;28;20483;-64
2022/07/17 06:17:51;;;;;;;4.88;1.55;;;16.20;60.40;;;;;;5052206;28;20116;-63
2022/07/17 06:20:17;;;;;;;5.22;1.42;;;16.80;59.70;;;;;;5035578;28;20033;-63
2022/07/17 06:22:43;;;;;;;4.85;1.25;;;17.30;58.90;;;;;;5053432;28;20033;-62
2022/07/17 06:25:10;;;;;;;4.38;1.35;;;18.10;57.70;;;;;;5051533;28;20045;-63
2022/07/17 06:27:39;;;;;;;2.38;1.08;;;18.80;56.30;;;;;;5049415;28;20045;-68
2022/07/17 06:30:06;;;;;;;3.60;0.90;;;19.50;54.80;;;;;;5045853;28;20059;-69
2022/07/17 06:32:32;;;;;;;2.83;1.10;;;20.10;53.80;;;;;;5051623;28;20041;-69
2022/07/17 06:34:57;;;;;;;5.30;1.13;;;20.60;52.30;;;;;;5051804;28;20052;-69
2022/07/17 06:37:23;;;;;;;2.78;1.23;;;21.20;51.30;;;;;;5051943;28;20478;-69
2022/07/17 06:39:49;;;;;;;4.03;1.60;;;21.60;50.40;;;;;;5034943;28;20398;-68
2022/07/17 06:42:14;;;;;;;5.00;1.27;;;22.10;49.10;;;;;;5052991;28;20041;-68
2022/07/17 06:44:40;;;;;;;3.97;0.98;;;22.50;47.80;;;;;;5051924;28;20532;-69
2022/07/17 06:47:06;;;;;;;6.25;1.75;;;23.00;47.00;;;;;;5051160;28;20394;-69
2022/07/17 06:49:31;;;;;;;5.03;1.00;;;23.40;46.10;;;;;;5050920;28;20447;-69
2022/07/17 06:51:57;;;;;;;2.97;0.93;;;23.70;44.90;;;;;;5051845;28;20048;-68
2022/07/17 06:54:25;;;;;;;3.67;0.98;;;24.10;44.20;;;;;;5051876;28;20064;-68
2022/07/17 06:56:52;;;;;;;5.18;1.45;;;24.50;44.10;;;;;;5051326;28;20045;-68
2022/07/17 06:59:18;;;;;;;4.03;1.05;;;24.90;43.30;;;;;;5051192;28;20049;-70
2022/07/17 07:01:45;;;;;;;3.50;1.00;;;25.20;42.00;;;;;;5052737;28;20130;-69
2022/07/17 07:04:11;;;;;;;3.88;0.88;;;25.50;41.70;;;;;;5051591;28;20466;-69
2022/07/17 07:06:37;;;;;;;4.50;1.02;;;25.80;41.00;;;;;;5051319;28;20555;-69
2022/07/17 07:09:03;;;;;;;3.53;1.10;;;26.10;40.10;;;;;;5052239;28;20119;-69
2022/07/17 07:11:29;;;;;;;5.38;1.30;;;26.30;39.60;;;;;;5052415;28;20040;-69
2022/07/17 07:13:55;;;;;;;4.40;1.00;;;26.60;38.70;;;;;;5063125;28;20045;-70
2022/07/17 07:16:20;;;;;;;3.05;1.10;;;26.70;38.50;;;;;;5052410;28;20473;-70
2022/07/17 07:18:47;;;;;;;3.78;0.90;;;26.90;38.20;;;;;;5052413;28;20041;-69
2022/07/17 07:21:12;;;;;;;4.00;0.82;;;27.00;38.00;;;;;;5052141;28;20151;-69
2022/07/17 07:23:38;;;;;;;3.25;0.80;;;27.20;37.80;;;;;;5050862;28;20123;-69
2022/07/17 07:26:03;;;;;;;5.78;0.93;;;27.40;37.20;;;;;;5034501;28;20048;-69
2022/07/17 07:28:29;;;;;;;3.53;0.85;;;27.50;36.30;;;;;;5052364;28;20040;-69
2022/07/17 07:30:55;;;;;;;4.22;0.85;;;27.50;36.50;;;;;;5052114;28;20040;-69
2022/07/17 07:33:20;;;;;;;3.13;0.82;;;27.50;36.60;;;;;;5051163;28;20094;-69
2022/07/17 07:35:46;;;;;;;3.80;0.95;;;27.50;36.70;;;;;;5051000;28;20048;-70
2022/07/17 07:38:12;;;;;;;5.55;0.88;;;27.60;37.10;;;;;;5051923;28;20056;-70
2022/07/17 07:40:37;;;;;;;3.00;0.90;;;27.80;36.20;;;;;;5052247;28;20052;-69
2022/07/17 07:43:03;;;;;;;2.83;0.85;;;27.90;36.10;;;;;;5052359;28;20041;-70
2022/07/17 07:45:30;;;;;;;6.97;1.10;;;28.00;35.60;;;;;;5051977;28;20436;-69
2022/07/17 07:47:56;;;;;;;4.40;1.05;;;28.20;35.90;;;;;;5051119;28;20056;-70
2022/07/17 07:50:24;;;;;;;3.90;0.80;;;28.40;35.80;;;;;;5050946;28;20033;-72
2022/07/17 07:52:50;;;;;;;4.75;1.00;;;28.50;35.70;;;;;;5051458;28;20055;-72
2022/07/17 07:55:16;;;;;;;3.55;1.10;;;28.60;35.50;;;;;;5050265;28;20059;-71
2022/07/17 07:57:42;;;;;;;5.20;1.40;;;28.60;35.50;;;;;;5051105;28;20049;-72
2022/07/17 08:00:09;;;;;;;5.90;1.00;;;28.60;35.50;;;;;;5051802;28;20048;-71
2022/07/17 08:02:35;;;;;;;2.58;0.65;;;28.70;35.60;;;;;;5050613;28;20048;-71
2022/07/17 08:05:01;;;;;;;3.05;0.90;;;28.80;35.60;;;;;;5050914;28;20048;-72
2022/07/17 08:07:27;;;;;;;4.30;1.10;;;28.90;35.40;;;;;;5061806;28;20120;-66
2022/07/17 08:09:53;;;;;;;4.22;1.05;;;28.90;35.30;;;;;;5032469;28;20046;-66
2022/07/17 08:12:19;;;;;;;4.63;1.33;;;28.90;35.00;;;;;;5032289;28;20438;-66
2022/07/17 08:14:45;;;;;;;2.78;0.80;;;28.80;35.30;;;;;;5031430;28;20049;-66
2022/07/17 08:17:11;;;;;;;4.05;1.08;;;28.80;35.70;;;;;;5049369;28;20540;-66
2022/07/17 08:19:37;;;;;;;4.40;0.77;;;28.90;35.60;;;;;;5050979;28;20055;-66
2022/07/17 08:22:02;;;;;;;4.68;1.15;;;28.90;35.50;;;;;;5050406;28;20496;-65
2022/07/17 08:24:28;;;;;;;5.05;0.98;;;28.90;35.30;;;;;;5050482;28;20037;-65
2022/07/17 08:26:54;;;;;;;5.57;0.90;;;28.70;35.10;;;;;;5069721;28;20044;-65
2022/07/17 08:29:20;;;;;;;2.72;0.95;;;28.60;35.30;;;;;;5054444;28;20045;-65
2022/07/17 08:31:46;;;;;;;2.60;0.60;;;28.60;35.70;;;;;;5054062;28;20041;-64
2022/07/17 08:34:13;;;;;;;3.28;0.75;;;28.60;35.90;;;;;;5055127;28;20044;-64
2022/07/17 08:36:39;;;;;;;2.97;0.70;;;28.70;35.80;;;;;;5034008;28;20046;-63
2022/07/17 08:39:05;;;;;;;5.50;1.30;;;28.70;35.70;;;;;;5053642;28;20040;-63
2022/07/17 08:41:30;;;;;;;2.60;0.82;;;28.70;35.70;;;;;;5053995;28;20047;-63
2022/07/17 08:43:57;;;;;;;4.15;1.00;;;28.80;35.60;;;;;;5055231;28;20129;-63
2022/07/17 08:46:27;;;;;;;4.22;1.08;;;28.80;35.20;;;;;;5051528;28;20462;-63
2022/07/17 08:49:00;;;;;;;3.08;0.90;;;28.80;35.10;;;;;;5053863;28;20124;-64
2022/07/17 08:51:26;;;;;;;4.03;0.95;;;28.40;34.90;;;;;;5052749;28;20033;-64
2022/07/17 08:53:53;;;;;;;3.90;0.90;;;28.00;35.20;;;;;;5054518;28;20060;-64
2022/07/17 08:56:19;;;;;;;5.38;1.50;;;27.80;36.30;;;;;;5053486;28;20033;-63
2022/07/17 08:58:45;;;;;;;4.40;1.10;;;27.70;36.20;;;;;;5053463;28;20405;-64
2022/07/17 09:01:11;;;;;;;2.90;0.63;;;27.60;36.50;;;;;;5054084;28;20045;-63
2022/07/17 09:03:41;;;;;;;2.10;0.70;;;27.60;36.70;;;;;;5053753;28;20493;-64
2022/07/17 09:06:20;;;;;;;5.30;1.13;;;27.70;36.90;;;;;;5053677;28;20066;-63
2022/07/17 09:08:46;;;;;;;4.20;1.20;;;27.70;36.10;;;;;;5041644;28;20045;-62
2022/07/17 09:11:12;;;;;;;3.10;0.85;;;27.70;36.70;;;;;;5054752;28;20047;-61
2022/07/17 09:13:42;;;;;;;4.30;1.15;;;27.70;36.60;;;;;;5050718;28;20037;-61
2022/07/17 09:16:12;;;;;;;2.90;0.90;;;27.70;36.80;;;;;;5039074;28;20074;-61
2022/07/17 09:18:50;;;;;;;3.33;1.15;;;27.80;36.60;;;;;;5053255;28;20091;-62
2022/07/17 09:21:24;;;;;;;2.92;0.85;;;27.80;37.00;;;;;;5053428;28;20048;-61
2022/07/17 09:24:04;;;;;;;3.65;1.08;;;27.80;36.80;;;;;;5053003;28;20032;-62
2022/07/17 09:26:32;;;;;;;5.85;1.00;;;27.90;36.70;;;;;;5053103;28;20048;-61
2022/07/17 09:29:00;;;;;;;3.92;1.40;;;27.90;36.50;;;;;;5046512;28;20045;-62
2022/07/17 09:31:28;;;;;;;4.43;1.27;;;27.80;36.00;;;;;;5053442;28;20086;-62
2022/07/17 09:33:54;;;;;;;3.38;0.82;;;27.50;36.60;;;;;;5052825;28;20041;-62
2022/07/17 09:36:20;;;;;;;3.45;1.00;;;27.40;36.80;;;;;;5054540;28;20041;-62
2022/07/17 09:38:48;;;;;;;4.63;0.93;;;27.40;37.10;;;;;;5051658;28;20051;-62
2022/07/17 09:41:20;;;;;;;3.70;0.85;;;27.50;37.30;;;;;;5053048;28;20409;-62
2022/07/17 09:43:52;;;;;;;3.15;1.00;;;27.50;37.60;;;;;;5052832;28;20045;-62
2022/07/17 09:46:26;;;;;;;3.33;1.07;;;27.60;37.40;;;;;;5054460;28;20041;-60
2022/07/17 09:49:13;;;;;;;5.95;1.15;;;27.70;37.30;;;;;;5053704;28;20300;-63
2022/07/17 09:51:40;;;;;;;5.50;1.42;;;27.70;37.30;;;;;;5054086;28;20060;-62
2022/07/17 09:54:12;;;;;;;3.30;0.93;;;27.80;36.90;;;;;;5054014;28;20048;-62
2022/07/17 09:56:39;;;;;;;4.32;1.10;;;27.80;36.60;;;;;;5052963;28;20069;-61
2022/07/17 09:59:12;;;;;;;4.70;1.50;;;27.80;36.50;;;;;;5053715;28;20045;-60
2022/07/17 10:01:39;;;;;;;4.50;0.90;;;27.90;36.60;;;;;;5053537;28;20048;-61
2022/07/17 10:04:07;;;;;;;3.80;0.80;;;27.90;36.70;;;;;;5063800;28;20170;-61
2022/07/17 10:06:33;;;;;;;3.13;1.05;;;28.00;36.90;;;;;;5052941;28;20134;-61
2022/07/17 10:08:59;;;;;;;4.13;0.90;;;28.10;36.40;;;;;;5053926;28;20441;-61
2022/07/17 10:11:27;;;;;;;2.10;0.70;;;28.10;36.70;;;;;;5052777;28;20033;-61
2022/07/17 10:13:56;;;;;;;2.47;0.95;;;28.10;36.00;;;;;;5053646;28;20112;-60
2022/07/17 10:16:27;;;;;;;5.35;1.10;;;28.10;36.50;;;;;;5035379;28;20215;-60
2022/07/17 10:18:55;;;;;;;4.00;1.15;;;28.10;36.60;;;;;;5048601;28;20155;-61
2022/07/17 10:21:22;;;;;;;3.95;0.80;;;28.20;36.60;;;;;;5040765;28;20044;-61
2022/07/17 10:23:50;;;;;;;3.55;0.95;;;28.20;36.40;;;;;;5049033;28;20049;-61
2022/07/17 10:26:17;;;;;;;3.38;1.00;;;28.10;36.10;;;;;;5052415;28;20136;-61
2022/07/17 10:28:44;;;;;;;1.95;1.08;;;28.10;36.40;;;;;;5051504;28;20051;-61
2022/07/17 10:31:22;;;;;;;3.17;1.25;;;28.00;36.80;;;;;;5053259;28;20080;-61
2022/07/17 10:34:05;;;;;;;4.45;1.27;;;28.00;36.60;;;;;;5050584;28;20052;-61
2022/07/17 10:36:40;;;;;;;3.88;1.02;;;28.00;36.60;;;;;;5051757;28;20033;-63
2022/07/17 10:39:18;;;;;;;3.40;1.10;;;28.00;36.00;;;;;;5052236;28;20402;-64
2022/07/17 10:41:59;;;;;;;3.65;1.00;;;27.90;36.20;;;;;;5052503;28;20052;-64
2022/07/17 10:44:31;;;;;;;4.93;1.13;;;27.80;35.90;;;;;;5051834;28;20048;-64
2022/07/17 10:46:58;;;;;;;2.28;1.15;;;27.80;36.60;;;;;;5051825;28;20192;-65
2022/07/17 10:49:25;;;;;;;2.00;1.10;;;27.70;36.60;;;;;;5051441;28;20098;-65
2022/07/17 10:51:51;;;;;;;2.80;1.02;;;27.70;36.70;;;;;;5041740;28;20040;-65
2022/07/17 10:54:18;;;;;;;1.63;0.82;;;27.70;37.00;;;;;;5044458;28;20580;-65
2022/07/17 10:56:44;;;;;;;3.35;1.13;;;27.70;37.20;;;;;;5050540;28;20104;-65
2022/07/17 10:59:11;;;;;;;3.28;0.90;;;27.80;37.00;;;;;;5050870;28;20118;-64
2022/07/17 11:01:37;;;;;;;3.63;1.13;;;27.80;37.00;;;;;;5052706;28;20044;-63
2022/07/17 11:04:04;;;;;;;4.35;1.15;;;27.90;36.70;;;;;;5051637;28;20110;-64
2022/07/17 11:06:31;;;;;;;2.28;0.85;;;27.90;36.70;;;;;;5050763;28;20087;-64
2022/07/17 11:08:58;;;;;;;3.65;1.38;;;28.00;37.00;;;;;;5050013;28;20045;-64
2022/07/17 11:11:37;;;;;;;3.85;1.08;;;28.00;37.40;;;;;;5052600;28;20480;-64
2022/07/17 11:14:10;;;;;;;2.25;0.88;;;28.10;37.00;;;;;;5050786;28;20059;-64
2022/07/17 11:16:37;;;;;;;3.45;1.20;;;28.10;37.00;;;;;;5051578;28;20048;-64
2022/07/17 11:19:03;;;;;;;3.70;1.33;;;28.20;36.90;;;;;;5050763;28;20563;-65
2022/07/17 11:21:29;;;;;;;2.33;1.38;;;28.40;36.40;;;;;;5051446;28;20051;-63
2022/07/17 11:23:57;;;;;;;2.97;1.38;;;28.40;36.20;;;;;;5052661;28;20047;-64
2022/07/17 11:26:23;;;;;;;2.75;1.15;;;28.40;35.20;;;;;;5068295;28;20049;-63
2022/07/17 11:28:51;;;;;;;3.80;1.15;;;28.30;35.80;;;;;;5050622;28;20090;-62
2022/07/17 11:31:23;;;;;;;3.90;1.40;;;28.30;35.60;;;;;;5051332;28;20482;-64
2022/07/17 11:33:57;;;;;;;3.33;1.20;;;28.30;35.90;;;;;;5050923;28;20044;-64
2022/07/17 11:36:30;;;;;;;2.60;1.17;;;28.30;36.50;;;;;;5051256;28;20048;-63
2022/07/17 11:38:58;;;;;;;2.03;1.10;;;28.30;36.70;;;;;;5051496;28;20068;-63
2022/07/17 11:41:39;;;;;;;2.45;1.25;;;28.40;36.80;;;;;;5051395;28;20052;-63
2022/07/17 11:44:09;;;;;;;3.65;1.40;;;28.50;36.90;;;;;;5050762;28;20036;-64
2022/07/17 11:46:36;;;;;;;2.92;1.42;;;28.50;36.80;;;;;;5051366;28;20045;-63
2022/07/17 11:49:03;;;;;;;3.22;1.65;;;28.60;36.70;;;;;;5052464;28;20463;-63
2022/07/17 11:51:47;;;;;;;4.40;1.30;;;28.60;36.10;;;;;;5051303;28;20504;-63
2022/07/17 11:54:15;;;;;;;3.33;1.25;;;28.60;36.80;;;;;;5050950;28;20605;-62
2022/07/17 11:56:42;;;;;;;4.10;1.42;;;28.60;36.30;;;;;;5049109;28;20037;-64
2022/07/17 11:59:09;;;;;;;2.75;1.35;;;28.60;36.40;;;;;;5043232;28;20412;-64
2022/07/17 12:01:44;;;;;;;2.88;1.08;;;28.70;36.00;;;;;;5045684;28;20048;-63
2022/07/17 12:04:13;;;;;;;2.50;1.27;;;28.70;36.40;;;;;;5051796;28;20278;-63
2022/07/17 12:06:39;;;;;;;3.33;1.48;;;28.80;35.80;;;;;;5047059;28;20041;-63
2022/07/17 12:09:06;;;;;;;3.20;1.63;;;28.90;36.00;;;;;;5047247;28;20053;-64
2022/07/17 12:11:32;;;;;;;3.55;1.80;;;28.90;36.00;;;;;;5048917;28;20724;-62
2022/07/17 12:14:08;;;;;;;3.22;1.45;;;29.00;34.90;;;;;;5044660;28;20049;-64
2022/07/17 12:16:36;;;;;;;3.53;1.35;;;28.90;35.30;;;;;;5030257;28;20460;-63
2022/07/17 12:19:08;;;;;;;4.20;1.55;;;29.00;35.80;;;;;;5046826;28;20049;-63
2022/07/17 12:21:56;;;;;;;5.65;1.88;;;29.00;35.90;;;;;;5047722;28;20045;-62
2022/07/17 12:24:36;;;;;;;7.47;1.70;;;29.00;35.80;;;;;;5062315;28;20087;-63
2022/07/17 12:27:05;;;;;;;3.40;1.65;;;29.00;35.60;;;;;;5048145;28;20063;-64
2022/07/17 12:29:31;;;;;;;3.20;1.92;;;29.00;35.20;;;;;;5046255;28;20050;-63
2022/07/17 12:32:05;;;;;;;6.60;1.85;;;29.10;34.70;;;;;;5029432;28;20045;-64
2022/07/17 12:34:32;;;;;;;3.45;2.13;;;29.10;35.10;;;;;;5046045;28;20040;-63
2022/07/17 12:36:58;;;;;;;3.05;2.10;;;29.10;35.30;;;;;;5056633;28;20047;-63
2022/07/17 12:39:23;;;;;;;3.67;2.10;;;29.10;35.40;;;;;;5046022;28;20045;-63
2022/07/17 12:41:49;;;;;;;3.42;1.77;;;29.10;35.10;;;;;;5045900;28;20048;-63
2022/07/17 12:44:14;;;;;;;3.83;2.00;;;29.10;34.90;;;;;;5047643;28;20033;-63
2022/07/17 12:46:40;;;;;;;5.65;2.13;;;29.20;35.50;;;;;;5045927;28;20464;-63
2022/07/17 12:49:06;;;;;;;4.32;2.47;;;29.20;35.30;;;;;;5045945;28;20102;-63